KIGX

Details ICAO KIGX
Name HORACE WILLIAMS
Region United States
Timezone America/New_York (UTC-5.0)
Plans Departing 7
Arriving 9
Stats Elevation 512 ft / 156 m (AMSL)
Location 35.935000° -79.065907°
Runways 1
Magnetic Variation 9.021° W
Sunrise 2017-12-13 12:19:35 UTC / 2017-12-13 07:19:35 Local
Sunset 2017-12-13 22:04:23 UTC / 2017-12-13 17:04:23 Local
Advertisement - Login to hide

Runways

ID Width Length Bearing (true) Bearing (mag) Surface Threshold Offset Overrun Length
09 75 ft / 23 m 3,997 ft / 1,218 m 81.83° 90.85° Asphalt 0 ft / 0 m 0 ft / 0 m
27 75 ft / 23 m 3,997 ft / 1,218 m 261.84° 270.86° Asphalt 511 ft / 156 m 0 ft / 0 m

Map

Weather


0- 5 10 15 20 25 30 35+ Temperature / ° C

Clouds and Precipitation
Forecast for 2017-12-13 18:00 UTC. Updated 20 minutes ago

Ground ~20,000 ft ~40,000 ft Winds

METAR

KIGX 131656Z AUTO 28011G17KT 10SM CLR 02/M16 A2994 RMK AO2 SLP142 T00221156

TAF

Not found

Frequencies

Recorded 134.57 MHz ASOS
Clearance 126.50 MHz CLNC DEL
Unicom 123.00 MHz CTAF/UNICOM
Approach 132.35 MHz RALEIGH APP/DEP
Warning: Do not use this data for real-world aviation or navigation. No guarantee of current accuracy is given.